Time;durP1;ratioP1;P1;durP2;ratioP2;P2;SDS_P1;SDS_P2;PMS_P1;PMS_P2;Temp;Humidity;BMP_temperature;BMP_pressure;BME280_temperature;BME280_humidity;BME280_pressure;Samples;Min_cycle;Max_cycle;Signal;HPM_P1;HPM_P2
2022/09/19 00:01:24;;;;;;;15.00;3.10;;;10.40;99.90;;;;;;5041055;28;20121;-62
2022/09/19 00:03:56;;;;;;;13.07;2.90;;;10.50;99.90;;;;;;5042051;28;20021;-61
2022/09/19 00:06:23;;;;;;;14.05;2.70;;;10.50;99.90;;;;;;5043565;28;20045;-61
2022/09/19 00:08:49;;;;;;;11.80;2.67;;;10.50;99.90;;;;;;5040894;28;20512;-61
2022/09/19 00:11:19;;;;;;;11.05;2.60;;;10.60;99.90;;;;;;5043884;28;20041;-62
2022/09/19 00:13:48;;;;;;;14.05;3.03;;;10.70;99.90;;;;;;5041824;28;20110;-62
2022/09/19 00:16:31;;;;;;;15.55;3.25;;;10.50;99.90;;;;;;5039857;28;20127;-61
2022/09/19 00:19:02;;;;;;;16.40;3.05;;;10.50;99.90;;;;;;5045011;28;20104;-62
2022/09/19 00:21:33;;;;;;;16.08;3.17;;;10.60;99.90;;;;;;5047448;28;20609;-61
2022/09/19 00:26:45;;;;;;;11.45;2.25;;;10.70;99.90;;;;;;5045650;28;20044;-62
2022/09/19 00:29:12;;;;;;;9.35;2.70;;;10.60;99.90;;;;;;5050615;28;20040;-62
2022/09/19 00:31:38;;;;;;;13.38;3.10;;;10.60;99.90;;;;;;5042579;28;20039;-62
2022/09/19 00:34:09;;;;;;;15.00;2.83;;;10.50;99.90;;;;;;5050175;28;20033;-62
2022/09/19 00:36:35;;;;;;;16.83;3.50;;;10.60;99.90;;;;;;5044239;28;20540;-61
2022/09/19 00:39:02;;;;;;;11.80;3.08;;;10.50;99.90;;;;;;5047684;28;20454;-61
2022/09/19 00:41:27;;;;;;;19.50;3.10;;;10.70;99.90;;;;;;5045623;28;20045;-62
2022/09/19 00:44:18;;;;;;;20.23;3.00;;;10.70;99.90;;;;;;5044946;28;20056;-61
2022/09/19 00:46:43;;;;;;;16.45;3.00;;;10.40;99.90;;;;;;5015657;28;20486;-62
2022/09/19 00:49:13;;;;;;;20.25;3.00;;;10.40;99.90;;;;;;5039764;28;20033;-61
2022/09/19 00:51:47;;;;;;;14.98;2.65;;;10.50;99.90;;;;;;5042427;28;20527;-62
2022/09/19 00:54:22;;;;;;;15.30;3.30;;;10.40;99.90;;;;;;5040403;28;20040;-61
2022/09/19 00:56:53;;;;;;;20.38;3.38;;;10.50;99.90;;;;;;5043777;28;20039;-61
2022/09/19 00:59:21;;;;;;;18.58;3.47;;;10.40;99.90;;;;;;5042269;28;20472;-61
2022/09/19 01:01:48;;;;;;;11.10;2.65;;;10.40;99.90;;;;;;5042756;28;20107;-62
2022/09/19 01:04:16;;;;;;;14.18;2.92;;;10.60;99.90;;;;;;5039328;28;20025;-61
2022/09/19 01:07:10;;;;;;;14.18;2.72;;;10.40;99.90;;;;;;5044273;28;20477;-62
2022/09/19 01:10:07;;;;;;;15.88;2.70;;;10.40;99.90;;;;;;5041155;28;20429;-61
2022/09/19 01:12:58;;;;;;;15.75;2.70;;;10.30;99.90;;;;;;5043905;28;20144;-61
2022/09/19 01:15:50;;;;;;;20.60;2.95;;;10.30;99.90;;;;;;5040725;28;20033;-61
2022/09/19 01:18:20;;;;;;;28.33;3.47;;;10.20;99.90;;;;;;5044162;28;20120;-61
2022/09/19 01:24:30;;;;;;;17.73;3.08;;;10.30;99.90;;;;;;5042460;28;20475;-61
2022/09/19 01:28:06;;;;;;;18.58;2.78;;;10.30;99.90;;;;;;5044721;28;20104;-61
2022/09/19 01:30:33;;;;;;;15.55;2.58;;;10.40;99.90;;;;;;4927020;28;20057;-61
2022/09/19 01:33:17;;;;;;;13.20;3.35;;;10.30;99.90;;;;;;4974811;28;20046;-62
2022/09/19 01:35:47;;;;;;;18.35;3.20;;;10.30;99.90;;;;;;5027899;28;20033;-61
2022/09/19 01:38:24;;;;;;;17.25;4.38;;;10.20;99.90;;;;;;5040259;28;20029;-61
2022/09/19 01:40:51;;;;;;;16.60;3.30;;;10.30;99.90;;;;;;5044474;28;20182;-61
2022/09/19 01:43:19;;;;;;;25.92;2.90;;;10.40;99.90;;;;;;5041997;28;20318;-61
2022/09/19 01:45:46;;;;;;;17.15;2.83;;;10.30;99.90;;;;;;5038455;28;20630;-61
2022/09/19 01:48:43;;;;;;;14.18;2.83;;;10.30;99.90;;;;;;5039499;28;20032;-61
2022/09/19 01:51:17;;;;;;;15.27;3.58;;;10.30;99.90;;;;;;5036270;28;20393;-61
2022/09/19 01:54:05;;;;;;;13.82;2.70;;;10.30;99.90;;;;;;5044162;28;20029;-62
2022/09/19 01:56:59;;;;;;;17.40;2.80;;;10.20;99.90;;;;;;5042410;28;20087;-61
2022/09/19 01:59:43;;;;;;;17.30;2.80;;;10.30;99.90;;;;;;5045027;28;20333;-61
2022/09/19 02:02:44;;;;;;;18.75;3.05;;;10.20;99.90;;;;;;5041988;28;20136;-62
2022/09/19 02:05:15;;;;;;;22.70;2.95;;;10.40;99.90;;;;;;5043589;28;20175;-61
2022/09/19 02:07:47;;;;;;;17.27;2.47;;;10.40;99.90;;;;;;5043816;28;20116;-61
2022/09/19 02:10:26;;;;;;;14.52;3.35;;;10.40;99.90;;;;;;5040006;28;20037;-61
2022/09/19 02:12:56;;;;;;;15.20;2.83;;;10.30;99.90;;;;;;5032843;28;20384;-62
2022/09/19 02:15:28;;;;;;;11.27;2.47;;;10.20;99.90;;;;;;5039433;28;20081;-62
2022/09/19 02:17:58;;;;;;;9.70;2.47;;;10.40;99.90;;;;;;5043164;28;20095;-61
2022/09/19 02:20:29;;;;;;;15.00;2.65;;;10.40;99.90;;;;;;5041818;28;20090;-61
2022/09/19 02:23:00;;;;;;;17.88;3.15;;;10.40;99.90;;;;;;5042274;28;20090;-61
2022/09/19 02:25:33;;;;;;;18.35;3.50;;;10.30;99.90;;;;;;5041673;28;20033;-62
2022/09/19 02:28:08;;;;;;;14.32;2.90;;;10.30;99.90;;;;;;5043045;28;20149;-61
2022/09/19 02:30:35;;;;;;;14.95;2.50;;;10.30;99.90;;;;;;5041849;28;20043;-61
2022/09/19 02:33:06;;;;;;;20.92;3.10;;;10.20;99.90;;;;;;5041743;28;20433;-61
2022/09/19 02:35:59;;;;;;;10.50;2.60;;;10.30;99.90;;;;;;5041563;28;20041;-61
2022/09/19 02:38:34;;;;;;;16.47;2.83;;;10.10;99.90;;;;;;5033124;28;20048;-61
2022/09/19 02:41:26;;;;;;;14.82;2.55;;;10.20;99.90;;;;;;5040761;28;20275;-61
2022/09/19 02:44:19;;;;;;;10.88;2.80;;;10.20;99.90;;;;;;5040907;28;20044;-61
2022/09/19 02:47:11;;;;;;;13.82;3.10;;;10.10;99.90;;;;;;5033275;28;20044;-61
2022/09/19 02:49:51;;;;;;;19.40;2.85;;;9.90;99.90;;;;;;5040688;28;20033;-62
2022/09/19 02:52:28;;;;;;;13.32;3.15;;;10.00;99.90;;;;;;5043113;28;20033;-61
2022/09/19 02:54:59;;;;;;;18.15;2.97;;;10.00;99.90;;;;;;5042391;28;20326;-62
2022/09/19 02:57:27;;;;;;;19.33;2.90;;;10.00;99.90;;;;;;5038623;28;20480;-61
2022/09/19 02:59:58;;;;;;;16.27;3.28;;;10.20;99.90;;;;;;5041721;28;20522;-61
2022/09/19 03:02:32;;;;;;;14.18;2.75;;;10.10;99.90;;;;;;5039813;28;20056;-61
2022/09/19 03:05:06;;;;;;;15.07;2.70;;;10.10;99.90;;;;;;5042971;28;20113;-61
2022/09/19 03:07:38;;;;;;;14.68;2.95;;;10.30;99.90;;;;;;5040024;28;20083;-61
2022/09/19 03:10:24;;;;;;;16.48;3.20;;;10.20;99.90;;;;;;5043674;28;20468;-62
2022/09/19 03:12:52;;;;;;;19.45;3.00;;;10.30;99.90;;;;;;5049043;28;20036;-61
2022/09/19 03:15:36;;;;;;;22.33;3.47;;;10.20;99.90;;;;;;5044623;28;20108;-61
2022/09/19 03:18:08;;;;;;;15.40;3.30;;;10.20;99.90;;;;;;5045469;28;20057;-62
2022/09/19 03:20:36;;;;;;;18.57;3.00;;;10.00;99.90;;;;;;5044330;28;20039;-61
2022/09/19 03:23:04;;;;;;;14.73;2.75;;;10.10;99.90;;;;;;5045951;28;20052;-62
2022/09/19 03:25:30;;;;;;;15.88;2.95;;;10.30;99.90;;;;;;5044149;28;20533;-62
2022/09/19 03:27:56;;;;;;;14.52;2.75;;;10.10;99.90;;;;;;5046109;28;20026;-62
2022/09/19 03:30:22;;;;;;;12.13;2.67;;;10.20;99.90;;;;;;5042558;28;20151;-61
2022/09/19 03:32:48;;;;;;;15.57;3.05;;;10.10;99.90;;;;;;5045859;28;20024;-62
2022/09/19 03:35:14;;;;;;;19.85;3.72;;;10.10;99.90;;;;;;5045596;28;20049;-61
2022/09/19 03:37:40;;;;;;;13.57;2.85;;;10.10;99.90;;;;;;5050153;28;20033;-61
2022/09/19 03:40:07;;;;;;;12.98;2.35;;;10.10;99.90;;;;;;5046388;28;20037;-62
2022/09/19 03:42:34;;;;;;;15.35;2.80;;;10.00;99.90;;;;;;5044783;28;20510;-62
2022/09/19 03:45:00;;;;;;;13.90;2.75;;;10.30;99.90;;;;;;5038979;28;20103;-62
2022/09/19 03:47:26;;;;;;;13.57;3.08;;;10.30;99.90;;;;;;5040741;28;20044;-62
2022/09/19 03:49:51;;;;;;;17.75;3.00;;;10.30;99.90;;;;;;5046324;28;20033;-61
2022/09/19 03:52:18;;;;;;;11.77;2.53;;;10.40;99.90;;;;;;5044528;28;20342;-61
2022/09/19 03:54:44;;;;;;;13.38;2.75;;;10.40;99.90;;;;;;5047930;28;20120;-61
2022/09/19 03:57:11;;;;;;;21.45;2.67;;;10.40;99.90;;;;;;5046146;28;20447;-61
2022/09/19 03:59:39;;;;;;;13.07;2.30;;;10.30;99.90;;;;;;5044388;28;20120;-61
2022/09/19 04:02:06;;;;;;;15.73;3.35;;;10.20;99.90;;;;;;5049259;28;20051;-61
2022/09/19 04:04:32;;;;;;;18.88;3.28;;;10.30;99.90;;;;;;5043079;28;20037;-62
2022/09/19 04:06:57;;;;;;;12.30;2.33;;;10.30;99.90;;;;;;5045771;28;20033;-61
2022/09/19 04:09:25;;;;;;;21.33;3.15;;;10.30;99.90;;;;;;5046575;28;20055;-61
2022/09/19 04:11:51;;;;;;;13.60;2.60;;;10.20;99.90;;;;;;5044823;28;20029;-61
2022/09/19 04:14:17;;;;;;;19.80;3.17;;;10.20;99.90;;;;;;5044817;28;20029;-61
2022/09/19 04:16:43;;;;;;;19.20;3.45;;;10.20;99.90;;;;;;5043100;28;20047;-61
2022/09/19 04:19:09;;;;;;;14.73;2.90;;;10.30;99.90;;;;;;5044687;28;20055;-61
2022/09/19 04:21:35;;;;;;;21.02;3.10;;;10.30;99.90;;;;;;5047265;28;20120;-61
2022/09/19 04:24:01;;;;;;;17.20;2.40;;;10.30;99.90;;;;;;5048140;28;20029;-61
2022/09/19 04:26:27;;;;;;;16.35;3.72;;;10.30;99.90;;;;;;5047662;28;20287;-62
2022/09/19 04:28:52;;;;;;;17.75;2.65;;;10.20;99.90;;;;;;5046982;28;20056;-61
2022/09/19 04:31:18;;;;;;;11.02;2.33;;;10.30;99.90;;;;;;5048924;28;20037;-62
2022/09/19 04:33:44;;;;;;;17.73;2.78;;;10.30;99.90;;;;;;5046811;28;20029;-62
2022/09/19 04:36:09;;;;;;;15.82;2.72;;;10.20;99.90;;;;;;5045979;28;20037;-62
2022/09/19 04:38:36;;;;;;;14.00;2.90;;;10.30;99.90;;;;;;5049082;28;20044;-61
2022/09/19 04:41:03;;;;;;;15.07;2.67;;;10.30;99.90;;;;;;5044067;28;20040;-62
2022/09/19 04:43:29;;;;;;;10.50;2.15;;;10.30;99.90;;;;;;5045508;28;20040;-62
2022/09/19 04:45:55;;;;;;;12.63;2.55;;;10.30;99.90;;;;;;5037106;28;20052;-62
2022/09/19 04:48:22;;;;;;;16.90;2.42;;;10.30;99.90;;;;;;5038396;28;20801;-62
2022/09/19 04:50:50;;;;;;;16.63;2.25;;;10.10;99.90;;;;;;5043111;28;20041;-62
2022/09/19 04:53:18;;;;;;;13.32;2.65;;;10.20;99.90;;;;;;5041526;28;20041;-62
2022/09/19 04:55:50;;;;;;;9.40;2.05;;;10.30;99.90;;;;;;5044003;28;20033;-62
2022/09/19 04:58:16;;;;;;;22.02;2.58;;;10.20;99.90;;;;;;5041571;28;20033;-62
2022/09/19 05:00:45;;;;;;;14.45;2.50;;;10.30;99.90;;;;;;5041897;28;20045;-61
2022/09/19 05:03:16;;;;;;;12.52;2.55;;;10.20;99.90;;;;;;5029560;28;20048;-62
2022/09/19 05:05:44;;;;;;;13.50;2.78;;;10.20;99.90;;;;;;5029146;28;20060;-62
2022/09/19 05:08:12;;;;;;;18.35;2.47;;;10.20;99.90;;;;;;5044623;28;20048;-62
2022/09/19 05:10:38;;;;;;;15.45;2.60;;;10.10;99.90;;;;;;5043682;28;20037;-61
2022/09/19 05:13:04;;;;;;;14.77;2.22;;;10.10;99.90;;;;;;5046696;28;20150;-61
2022/09/19 05:15:30;;;;;;;14.38;2.60;;;10.10;99.90;;;;;;5042018;28;20056;-62
2022/09/19 05:17:56;;;;;;;13.40;2.50;;;10.10;99.90;;;;;;5041438;28;20509;-62
2022/09/19 05:20:26;;;;;;;14.73;2.47;;;10.10;99.90;;;;;;5040460;28;20442;-62
2022/09/19 05:22:56;;;;;;;12.00;2.50;;;10.00;99.90;;;;;;5044317;28;20044;-62
2022/09/19 05:25:22;;;;;;;22.33;3.30;;;10.10;99.90;;;;;;5044319;28;20090;-62
2022/09/19 05:27:48;;;;;;;17.10;2.50;;;10.20;99.90;;;;;;5041625;28;20040;-62
2022/09/19 05:30:13;;;;;;;13.82;2.80;;;10.20;99.90;;;;;;5039660;28;20454;-57
2022/09/19 05:32:44;;;;;;;13.27;2.83;;;10.10;99.90;;;;;;5038573;28;20037;-58
2022/09/19 05:35:11;;;;;;;15.23;2.97;;;10.10;99.90;;;;;;5033518;28;20139;-59
2022/09/19 05:37:40;;;;;;;13.35;2.85;;;10.20;99.90;;;;;;5040781;28;20486;-58
2022/09/19 05:40:07;;;;;;;13.27;2.50;;;10.20;99.90;;;;;;5034814;28;20051;-58
2022/09/19 05:42:32;;;;;;;16.17;2.85;;;10.20;99.90;;;;;;5042290;28;20033;-57
2022/09/19 05:44:58;;;;;;;15.88;2.72;;;10.20;99.90;;;;;;5034002;28;20106;-58
2022/09/19 05:47:25;;;;;;;18.25;2.70;;;10.20;99.90;;;;;;5037097;28;20037;-58
2022/09/19 05:49:50;;;;;;;20.85;3.30;;;10.30;99.90;;;;;;5045645;28;20033;-58
2022/09/19 05:55:00;;;;;;;16.10;2.92;;;10.20;99.90;;;;;;5031338;28;20040;-58
2022/09/19 05:57:26;;;;;;;19.80;2.92;;;10.00;99.90;;;;;;5041762;28;20037;-57
2022/09/19 05:59:51;;;;;;;12.52;2.83;;;10.20;99.90;;;;;;5044624;28;20045;-58
2022/09/19 06:02:20;;;;;;;19.45;3.03;;;10.20;99.90;;;;;;5041703;28;20049;-58
2022/09/19 06:04:45;;;;;;;15.05;3.47;;;10.40;99.90;;;;;;5041976;28;20465;-59
2022/09/19 06:07:11;;;;;;;14.35;3.17;;;10.30;99.90;;;;;;5038488;28;20074;-58
2022/09/19 06:09:37;;;;;;;18.25;3.30;;;10.40;99.90;;;;;;5042302;28;20036;-58
2022/09/19 06:12:03;;;;;;;17.02;2.95;;;10.40;99.90;;;;;;5038952;28;20053;-58
2022/09/19 06:14:28;;;;;;;17.23;3.10;;;10.50;99.90;;;;;;5039766;28;20488;-58
2022/09/19 06:16:54;;;;;;;26.77;2.95;;;10.50;99.90;;;;;;5035937;28;20646;-58
2022/09/19 06:19:20;;;;;;;17.33;3.28;;;10.50;99.90;;;;;;5041262;28;20437;-58
2022/09/19 06:21:45;;;;;;;20.40;3.00;;;10.50;99.90;;;;;;5038280;28;20030;-58
2022/09/19 06:24:12;;;;;;;22.27;3.40;;;10.50;99.90;;;;;;5037788;28;20332;-57
2022/09/19 06:26:38;;;;;;;13.50;3.05;;;10.60;99.90;;;;;;5038882;28;20169;-58
2022/09/19 06:29:03;;;;;;;15.27;3.20;;;10.70;99.90;;;;;;5040256;28;20391;-58
2022/09/19 06:31:29;;;;;;;16.85;3.13;;;10.70;99.90;;;;;;5033516;28;20059;-58
2022/09/19 06:33:55;;;;;;;16.92;3.22;;;10.90;99.90;;;;;;5034982;28;20059;-58
2022/09/19 06:36:21;;;;;;;14.68;3.10;;;10.90;99.90;;;;;;5036268;28;20025;-58
2022/09/19 06:38:46;;;;;;;19.80;3.53;;;10.90;99.90;;;;;;5038533;28;20120;-58
2022/09/19 06:41:13;;;;;;;20.45;3.83;;;10.90;99.90;;;;;;5040625;28;20064;-57
2022/09/19 06:43:38;;;;;;;20.92;3.22;;;10.90;99.90;;;;;;5036676;28;20123;-58
2022/09/19 06:46:05;;;;;;;29.90;4.10;;;10.90;99.90;;;;;;5036988;28;20711;-58
2022/09/19 06:48:31;;;;;;;14.40;3.58;;;11.10;99.90;;;;;;5034156;28;20045;-57
2022/09/19 06:50:56;;;;;;;19.00;4.15;;;11.30;99.90;;;;;;5037263;28;20093;-58
2022/09/19 06:53:22;;;;;;;16.40;3.35;;;11.40;99.90;;;;;;5044929;28;20231;-58
2022/09/19 06:55:48;;;;;;;13.27;3.38;;;11.50;99.90;;;;;;5038706;28;20033;-59
2022/09/19 06:58:14;;;;;;;24.88;3.92;;;11.50;99.90;;;;;;5039163;28;20043;-58
2022/09/19 07:00:43;;;;;;;20.10;3.72;;;11.70;99.90;;;;;;5035185;28;20127;-58
2022/09/19 07:03:11;;;;;;;17.70;3.33;;;11.70;99.90;;;;;;5041182;28;20044;-58
2022/09/19 07:05:39;;;;;;;14.05;4.30;;;11.80;99.90;;;;;;5037503;28;20440;-57
2022/09/19 07:08:05;;;;;;;16.90;4.95;;;11.60;99.90;;;;;;5037713;28;20072;-59
2022/09/19 07:10:33;;;;;;;23.85;4.18;;;11.80;99.90;;;;;;5042906;28;20065;-57
2022/09/19 07:13:02;;;;;;;17.67;3.65;;;11.90;99.90;;;;;;5039412;28;20037;-58
2022/09/19 07:15:30;;;;;;;21.10;3.92;;;12.00;99.90;;;;;;5036816;28;20079;-58
2022/09/19 07:17:56;;;;;;;13.98;3.53;;;11.90;99.90;;;;;;5045689;28;20049;-59
2022/09/19 07:20:23;;;;;;;16.77;3.25;;;12.10;99.90;;;;;;5040772;28;20149;-58
2022/09/19 07:22:58;;;;;;;14.60;3.65;;;12.10;99.90;;;;;;5040720;28;20127;-58
2022/09/19 07:25:24;;;;;;;11.55;3.33;;;12.20;99.90;;;;;;5038305;28;20460;-58
2022/09/19 07:27:57;;;;;;;17.38;3.45;;;12.10;99.90;;;;;;5039253;28;20067;-58
2022/09/19 07:30:23;;;;;;;15.52;3.20;;;12.10;99.90;;;;;;5038542;28;20060;-58
2022/09/19 07:32:49;;;;;;;12.55;3.13;;;12.10;99.90;;;;;;5042236;28;20388;-58
2022/09/19 07:35:14;;;;;;;17.67;3.60;;;12.30;99.90;;;;;;5041373;28;20049;-58
2022/09/19 07:37:40;;;;;;;12.93;3.13;;;12.40;99.90;;;;;;5032340;28;20048;-58
2022/09/19 07:40:06;;;;;;;13.93;4.03;;;12.40;99.90;;;;;;5041366;28;20030;-50
2022/09/19 07:42:31;;;;;;;32.45;13.30;;;12.40;99.90;;;;;;5042785;28;20033;-58
2022/09/19 07:44:57;;;;;;;12.95;3.75;;;12.60;99.90;;;;;;5032599;28;20041;-60
2022/09/19 07:47:28;;;;;;;19.42;6.03;;;12.70;99.90;;;;;;5039768;28;20224;-59
2022/09/19 07:49:55;;;;;;;15.70;3.97;;;12.70;99.90;;;;;;5039336;28;20025;-58
2022/09/19 07:52:22;;;;;;;16.55;5.20;;;12.80;99.90;;;;;;5038125;28;20026;-59
2022/09/19 07:54:49;;;;;;;23.33;3.83;;;12.80;99.90;;;;;;5040277;28;20241;-59
2022/09/19 07:57:15;;;;;;;15.98;2.72;;;13.00;99.90;;;;;;5041051;28;20033;-59
2022/09/19 07:59:40;;;;;;;20.63;3.60;;;12.90;99.90;;;;;;5047354;28;20420;-59
2022/09/19 08:02:08;;;;;;;14.13;3.25;;;13.00;99.90;;;;;;5042849;28;20037;-59
2022/09/19 08:04:34;;;;;;;19.70;3.83;;;13.10;99.90;;;;;;5041059;28;20112;-59
2022/09/19 08:07:00;;;;;;;14.60;3.22;;;13.80;99.90;;;;;;5040863;28;20116;-58
2022/09/19 08:09:26;;;;;;;16.02;3.67;;;13.10;99.90;;;;;;5044410;28;20025;-57
2022/09/19 08:11:51;;;;;;;16.70;3.25;;;13.10;99.90;;;;;;5043575;28;20340;-59
2022/09/19 08:14:17;;;;;;;15.90;3.35;;;13.20;99.90;;;;;;5040492;28;20043;-58
2022/09/19 08:16:43;;;;;;;18.42;4.88;;;13.30;99.90;;;;;;5041052;28;20048;-59
2022/09/19 08:19:09;;;;;;;14.70;3.40;;;13.40;99.90;;;;;;5044834;28;20559;-59
2022/09/19 08:21:34;;;;;;;16.95;3.72;;;13.40;99.90;;;;;;5042044;28;20041;-59
2022/09/19 08:24:00;;;;;;;16.27;3.22;;;13.40;99.90;;;;;;5048007;28;20048;-59
2022/09/19 08:26:26;;;;;;;17.17;3.13;;;13.60;99.90;;;;;;5040524;28;20029;-59
2022/09/19 08:28:52;;;;;;;33.97;18.30;;;13.60;99.90;;;;;;5041034;28;20116;-59
2022/09/19 08:31:17;;;;;;;15.40;3.22;;;13.60;99.90;;;;;;5040825;28;20177;-58
2022/09/19 08:33:45;;;;;;;16.73;3.40;;;13.60;99.90;;;;;;5036044;28;20056;-58
2022/09/19 08:36:11;;;;;;;15.85;2.72;;;13.70;99.90;;;;;;5040078;28;20141;-58
2022/09/19 08:38:36;;;;;;;15.93;2.60;;;13.50;99.90;;;;;;5042687;28;20052;-59
2022/09/19 08:41:05;;;;;;;16.10;2.42;;;13.60;99.90;;;;;;5043110;28;20033;-59
2022/09/19 08:44:03;;;;;;;17.35;2.65;;;13.60;99.90;;;;;;5041105;28;20105;-58
2022/09/19 08:46:41;;;;;;;12.75;2.72;;;13.60;99.90;;;;;;5002767;28;20045;-58
2022/09/19 08:49:13;;;;;;;13.88;2.65;;;13.70;99.90;;;;;;5038962;28;20071;-59
2022/09/19 08:52:05;;;;;;;11.77;2.33;;;13.90;99.90;;;;;;5042848;28;20032;-58
2022/09/19 08:54:35;;;;;;;17.13;2.75;;;14.10;99.90;;;;;;5037193;28;20333;-58
2022/09/19 08:57:03;;;;;;;16.42;2.67;;;13.90;99.90;;;;;;5043804;28;20043;-57
2022/09/19 08:59:39;;;;;;;17.95;2.70;;;14.10;99.90;;;;;;5041125;28;20550;-58
2022/09/19 09:02:19;;;;;;;8.45;2.15;;;14.30;99.90;;;;;;5038457;28;20464;-58
2022/09/19 09:04:45;;;;;;;13.88;2.85;;;14.30;99.90;;;;;;5042485;28;20068;-58
2022/09/19 09:07:36;;;;;;;14.30;2.88;;;14.40;99.90;;;;;;5040021;28;20083;-58
2022/09/19 09:10:23;;;;;;;13.23;2.55;;;14.70;99.90;;;;;;5041722;28;20033;-58
2022/09/19 09:13:13;;;;;;;18.77;2.50;;;14.60;99.90;;;;;;5036916;28;20061;-59
2022/09/19 09:15:58;;;;;;;15.75;2.53;;;14.70;99.90;;;;;;5037857;28;20044;-58
2022/09/19 09:18:46;;;;;;;21.35;2.65;;;14.60;99.90;;;;;;5039125;28;20049;-59
2022/09/19 09:21:27;;;;;;;15.15;2.72;;;14.70;99.90;;;;;;5040994;28;20037;-59
2022/09/19 09:24:13;;;;;;;12.52;2.85;;;14.80;99.90;;;;;;5042817;28;20404;-59
2022/09/19 09:26:43;;;;;;;13.93;2.00;;;14.60;99.90;;;;;;5042151;28;20033;-59
2022/09/19 09:29:30;;;;;;;15.35;2.03;;;14.70;99.90;;;;;;5040067;28;20026;-59
2022/09/19 09:32:16;;;;;;;11.52;2.10;;;14.90;99.90;;;;;;5039287;28;20461;-59
2022/09/19 09:35:00;;;;;;;10.48;1.83;;;15.10;99.90;;;;;;5042919;28;20108;-59
2022/09/19 09:37:53;;;;;;;13.48;2.60;;;15.10;99.90;;;;;;5039940;28;20076;-58
2022/09/19 09:43:36;;;;;;;11.82;2.20;;;15.00;99.90;;;;;;5019373;28;20085;-58
2022/09/19 09:46:08;;;;;;;13.30;2.15;;;15.20;99.90;;;;;;5032951;28;20048;-58
2022/09/19 09:48:38;;;;;;;10.02;1.73;;;15.30;99.90;;;;;;5042045;28;20029;-59
2022/09/19 09:51:25;;;;;;;11.80;1.90;;;15.60;99.90;;;;;;5037470;28;20098;-59
2022/09/19 09:57:24;;;;;;;13.75;2.58;;;15.70;99.90;;;;;;5040628;28;20043;-59
2022/09/19 10:06:16;;;;;;;12.80;2.20;;;15.40;99.90;;;;;;5042645;28;20107;-59
2022/09/19 10:09:01;;;;;;;11.55;2.45;;;15.50;99.90;;;;;;5035643;28;20036;-59
2022/09/19 10:11:52;;;;;;;11.45;1.98;;;15.70;99.90;;;;;;5034717;28;20055;-59
2022/09/19 10:14:23;;;;;;;11.80;2.03;;;15.90;99.90;;;;;;5033911;28;20094;-58
2022/09/19 10:16:52;;;;;;;13.98;2.88;;;15.90;99.90;;;;;;5042024;28;20511;-59
2022/09/19 10:19:40;;;;;;;10.82;1.70;;;15.80;99.90;;;;;;5038828;28;20206;-59
2022/09/19 10:22:14;;;;;;;10.82;2.53;;;15.60;99.90;;;;;;5040591;28;20063;-59
2022/09/19 10:25:10;;;;;;;11.32;1.90;;;15.80;99.90;;;;;;5038491;28;20178;-59
2022/09/19 10:27:39;;;;;;;13.25;2.45;;;15.90;99.90;;;;;;5029170;28;20029;-59
2022/09/19 10:30:50;;;;;;;15.68;2.08;;;15.90;99.90;;;;;;5041033;28;20071;-59
2022/09/19 10:33:36;;;;;;;16.15;2.47;;;15.90;99.90;;;;;;4996782;28;20029;-58
2022/09/19 10:36:15;;;;;;;17.02;3.70;;;15.70;99.90;;;;;;5041115;28;20115;-60
2022/09/19 10:38:54;;;;;;;13.15;2.88;;;15.70;99.90;;;;;;5040343;28;20672;-59
2022/09/19 10:41:22;;;;;;;13.32;2.35;;;15.30;99.90;;;;;;5042927;28;20035;-61
2022/09/19 10:43:57;;;;;;;12.07;3.25;;;15.20;99.90;;;;;;5035837;28;20029;-61
2022/09/19 10:46:35;;;;;;;10.77;2.10;;;15.10;99.90;;;;;;5025121;28;20037;-61
2022/09/19 10:49:05;;;;;;;11.23;1.95;;;15.10;99.90;;;;;;5038511;28;20040;-61
2022/09/19 10:51:43;;;;;;;12.30;2.25;;;15.00;99.90;;;;;;5038879;28;20045;-60
2022/09/19 10:54:19;;;;;;;9.07;1.75;;;15.10;99.90;;;;;;5042445;28;20037;-61
2022/09/19 10:56:46;;;;;;;9.50;1.92;;;15.10;99.90;;;;;;5039269;28;20043;-61
2022/09/19 10:59:12;;;;;;;13.27;2.22;;;15.30;99.90;;;;;;5044869;28;20567;-61
2022/09/19 11:01:39;;;;;;;12.88;2.50;;;15.50;99.90;;;;;;5042374;28;20033;-60
2022/09/19 11:04:21;;;;;;;13.15;2.30;;;15.40;99.90;;;;;;5038766;28;20093;-60
2022/09/19 11:07:02;;;;;;;17.15;3.88;;;15.60;99.90;;;;;;5041989;28;20163;-59
2022/09/19 11:09:36;;;;;;;15.18;2.35;;;15.70;99.90;;;;;;5041282;28;20662;-60
2022/09/19 11:12:09;;;;;;;10.02;2.17;;;15.90;99.90;;;;;;5037855;28;20524;-59
2022/09/19 11:14:40;;;;;;;11.82;2.13;;;16.00;99.90;;;;;;5040978;28;20036;-59
2022/09/19 11:17:18;;;;;;;10.93;2.00;;;16.10;99.90;;;;;;5037341;28;20561;-58
2022/09/19 11:20:16;;;;;;;12.95;2.63;;;16.30;99.90;;;;;;5038732;28;20509;-59
2022/09/19 11:23:28;;;;;;;10.23;3.20;;;17.20;99.90;;;;;;5039981;28;20064;-59
2022/09/19 11:26:18;;;;;;;10.45;1.98;;;16.20;99.90;;;;;;5035357;28;20033;-57
2022/09/19 11:29:12;;;;;;;5.55;0.77;;;16.00;99.90;;;;;;5036163;28;20502;-59
2022/09/19 11:32:06;;;;;;;6.82;2.10;;;14.30;99.90;;;;;;5041533;28;20356;-60
2022/09/19 11:34:55;;;;;;;5.97;1.50;;;13.80;99.90;;;;;;5044041;28;20117;-58
2022/09/19 11:37:44;;;;;;;6.03;1.35;;;13.00;99.90;;;;;;5043969;28;20652;-58
2022/09/19 11:40:19;;;;;;;4.50;0.80;;;12.30;99.90;;;;;;5042734;28;20029;-58
2022/09/19 11:42:50;;;;;;;3.35;0.60;;;12.10;99.90;;;;;;5042266;28;20037;-61
2022/09/19 11:45:18;;;;;;;3.00;0.70;;;11.80;99.90;;;;;;5041724;28;20017;-62
2022/09/19 11:47:52;;;;;;;5.80;1.15;;;11.80;99.90;;;;;;5039961;28;20126;-61
2022/09/19 11:50:39;;;;;;;5.22;1.55;;;11.70;99.90;;;;;;5042840;28;20429;-62
2022/09/19 11:53:23;;;;;;;2.90;0.80;;;12.10;99.90;;;;;;5039985;28;20470;-62
2022/09/19 11:56:16;;;;;;;3.08;0.70;;;12.30;99.90;;;;;;5043974;28;20401;-62
2022/09/19 11:58:55;;;;;;;2.92;1.23;;;12.50;99.90;;;;;;5043801;28;20329;-62
2022/09/19 12:01:58;;;;;;;3.67;0.80;;;13.00;99.90;;;;;;5041882;28;21583;-62
2022/09/19 12:04:34;;;;;;;2.95;0.90;;;13.00;99.90;;;;;;5042800;28;20433;-61
2022/09/19 12:07:24;;;;;;;3.15;0.70;;;13.10;99.90;;;;;;5044942;28;20408;-61
2022/09/19 12:09:56;;;;;;;2.70;0.70;;;13.30;99.90;;;;;;5048054;28;20083;-61
2022/09/19 12:12:27;;;;;;;2.67;0.80;;;13.50;99.90;;;;;;5042804;28;20576;-61
2022/09/19 12:15:00;;;;;;;5.47;1.38;;;13.70;99.90;;;;;;5043039;28;20034;-61
2022/09/19 12:17:34;;;;;;;3.30;0.90;;;13.90;99.90;;;;;;5046976;28;20104;-61
2022/09/19 12:20:13;;;;;;;3.70;0.90;;;13.90;99.90;;;;;;5045289;28;20083;-61
2022/09/19 12:22:52;;;;;;;11.50;1.42;;;14.10;99.90;;;;;;5044321;28;20047;-61
2022/09/19 12:25:23;;;;;;;6.40;1.10;;;14.40;99.90;;;;;;5038297;28;20055;-61
2022/09/19 12:28:06;;;;;;;4.80;1.00;;;14.20;99.90;;;;;;5042177;28;20060;-61
2022/09/19 12:30:41;;;;;;;3.65;0.88;;;14.30;99.90;;;;;;5042713;28;20041;-60
2022/09/19 12:33:33;;;;;;;9.65;1.40;;;14.40;99.90;;;;;;5042214;28;20443;-61
2022/09/19 12:36:05;;;;;;;4.20;1.33;;;14.50;99.90;;;;;;5042432;28;20492;-60
2022/09/19 12:38:35;;;;;;;3.70;0.90;;;14.60;99.90;;;;;;5040055;28;20399;-60
2022/09/19 12:41:28;;;;;;;3.78;0.82;;;14.60;99.90;;;;;;5039025;28;20279;-60
2022/09/19 12:44:15;;;;;;;3.83;1.23;;;14.50;99.90;;;;;;5038934;28;20555;-59
2022/09/19 12:47:04;;;;;;;5.82;1.23;;;14.60;99.90;;;;;;5033047;28;20295;-59
2022/09/19 12:50:01;;;;;;;5.95;1.20;;;14.70;99.90;;;;;;5038827;28;20041;-60
2022/09/19 12:52:35;;;;;;;6.03;1.13;;;14.80;99.90;;;;;;5041240;28;20052;-58
2022/09/19 12:55:21;;;;;;;9.35;1.10;;;14.80;99.90;;;;;;5049886;28;20036;-59
2022/09/19 12:57:50;;;;;;;7.05;1.45;;;14.60;99.90;;;;;;5043871;28;20025;-59
2022/09/19 13:00:18;;;;;;;7.72;1.27;;;14.70;99.90;;;;;;5040239;28;20454;-59
2022/09/19 13:03:09;;;;;;;5.60;1.35;;;14.50;99.90;;;;;;5042005;28;20029;-58
2022/09/19 13:05:45;;;;;;;7.55;1.33;;;14.40;99.90;;;;;;5037993;28;20033;-59
2022/09/19 13:08:17;;;;;;;9.57;1.85;;;14.30;99.90;;;;;;5043077;28;20052;-59
2022/09/19 13:11:13;;;;;;;6.82;1.00;;;14.20;99.90;;;;;;5043161;28;20036;-59
2022/09/19 13:13:51;;;;;;;8.60;2.25;;;14.20;99.90;;;;;;5042522;28;20037;-59
2022/09/19 13:16:19;;;;;;;10.50;1.80;;;14.30;99.90;;;;;;5039276;28;20087;-58
2022/09/19 13:24:52;;;;;;;4.00;1.00;;;14.40;99.90;;;;;;5040202;28;20131;-59
2022/09/19 13:27:20;;;;;;;4.70;1.25;;;14.40;99.90;;;;;;5040029;28;20476;-59
2022/09/19 13:29:48;;;;;;;4.47;0.80;;;14.40;99.90;;;;;;5043820;28;20182;-60
2022/09/19 13:32:48;;;;;;;3.92;0.95;;;14.40;99.90;;;;;;5039841;28;20450;-60
2022/09/19 13:35:16;;;;;;;4.15;0.80;;;14.50;99.90;;;;;;5038481;28;20055;-59
2022/09/19 13:37:48;;;;;;;5.00;1.50;;;14.50;99.90;;;;;;5047448;28;20104;-59